Newfield, New Jersey
Current Conditions -  °F | °C
As of 7:54 AM on Monday 20 Oct 2014 (Local Time) from KMIV Reporting Station
Clear Clear  
Wind Chill: 33°   Ceiling: Unl
Heat Index: 33°   Visibility: 10mi
Dew Point: 31°   Wind: 0mph
Humidity: 92%   Direction: NA
Pressure: 30.14"   Gusts: NA
Location:  39.55°N, 75.02°W
Report Text: KMIV 201154Z AUTO 00000KT 10SM CLR 01/M01 A3014 RMK AO2 SLP204 T00061006 10017 21006 53004
Loading
Personal Weather Stations






























Interactive Weather Map
Tropical Storm Tracking
New forecast layout! Learn more

10-Day Weather Forecast

Advertisements
Track Severe Weather on mobile